createdAt,value
2023-05-22T00:00:16.743Z,42.75
2023-05-22T00:03:05.635Z,42.92
2023-05-22T00:05:39.421Z,43.10
2023-05-22T00:08:13.575Z,43.53
2023-05-22T00:10:44.072Z,43.72
2023-05-22T00:13:14.686Z,43.79
2023-05-22T00:15:43.630Z,43.76
2023-05-22T00:18:16.177Z,44.02
2023-05-22T00:20:46.783Z,43.85
2023-05-22T00:23:17.611Z,43.82
2023-05-22T00:25:46.721Z,44.00
2023-05-22T00:28:17.068Z,43.98
2023-05-22T00:30:48.460Z,44.09
2023-05-22T00:33:17.991Z,43.99
2023-05-22T00:35:51.676Z,44.14
2023-05-22T00:38:29.885Z,44.15
2023-05-22T00:41:03.241Z,44.15
2023-05-22T00:43:33.658Z,44.12
2023-05-22T00:46:03.691Z,44.14
2023-05-22T00:48:34.503Z,44.26
2023-05-22T00:51:05.759Z,44.34
2023-05-22T00:53:37.581Z,44.33
2023-05-22T00:56:09.151Z,44.37
2023-05-22T00:58:40.513Z,44.18
2023-05-22T01:01:11.686Z,44.32
2023-05-22T01:03:48.190Z,44.32
2023-05-22T01:06:21.913Z,44.43
2023-05-22T01:08:52.115Z,44.58
2023-05-22T01:11:52.047Z,44.63
2023-05-22T01:14:37.054Z,44.73
2023-05-22T01:17:23.032Z,44.67
2023-05-22T01:20:07.895Z,44.69
2023-05-22T01:22:48.653Z,44.74
2023-05-22T01:25:40.393Z,44.75
2023-05-22T01:28:09.162Z,44.80
2023-05-22T01:31:01.263Z,44.82
2023-05-22T01:33:36.452Z,45.05
2023-05-22T01:36:08.391Z,45.00
2023-05-22T01:38:37.835Z,45.10
2023-05-22T01:41:08.129Z,45.19
2023-05-22T01:43:39.203Z,45.25
2023-05-22T01:46:09.561Z,45.31
2023-05-22T01:48:40.364Z,45.31
2023-05-22T01:51:17.496Z,45.33
2023-05-22T01:53:59.724Z,45.46
2023-05-22T01:56:38.235Z,45.51
2023-05-22T01:59:11.091Z,45.34
2023-05-22T02:01:40.160Z,45.45
2023-05-22T02:04:10.306Z,45.64
2023-05-22T02:06:41.912Z,45.62
2023-05-22T02:09:11.295Z,45.86
2023-05-22T02:11:41.623Z,45.99
2023-05-22T02:14:12.615Z,45.59
2023-05-22T02:16:42.988Z,45.81
2023-05-22T02:19:11.864Z,45.75
2023-05-22T02:21:42.888Z,45.80
2023-05-22T02:24:11.876Z,46.06
2023-05-22T02:26:43.061Z,46.20
2023-05-22T02:29:14.597Z,46.21
2023-05-22T02:31:44.175Z,46.12
2023-05-22T02:34:17.780Z,46.20
2023-05-22T02:36:48.164Z,46.17
2023-05-22T02:39:20.742Z,46.20
2023-05-22T02:41:50.044Z,45.99
2023-05-22T02:44:22.021Z,46.45
2023-05-22T02:46:53.033Z,46.24
2023-05-22T02:49:23.464Z,46.21
2023-05-22T02:51:52.363Z,46.46
2023-05-22T02:54:22.518Z,46.46
2023-05-22T02:56:52.619Z,46.31
2023-05-22T02:59:22.191Z,46.52
2023-05-22T03:01:54.844Z,46.57
2023-05-22T03:04:25.391Z,46.65
2023-05-22T03:06:56.978Z,47.00
2023-05-22T03:09:27.405Z,46.86
2023-05-22T03:11:58.322Z,46.96
2023-05-22T03:14:29.570Z,47.15
2023-05-22T03:16:59.341Z,47.15
2023-05-22T03:19:29.662Z,47.15
2023-05-22T03:21:59.576Z,47.23
2023-05-22T03:24:30.049Z,47.17
2023-05-22T03:27:00.329Z,47.27
2023-05-22T03:29:36.813Z,47.28
2023-05-22T03:32:07.752Z,47.43
2023-05-22T03:34:38.460Z,47.40
2023-05-22T03:37:09.573Z,47.43
2023-05-22T03:39:40.031Z,47.51
2023-05-22T03:42:18.704Z,47.51
2023-05-22T03:44:49.720Z,47.69
2023-05-22T03:47:19.681Z,47.61
2023-05-22T03:49:50.798Z,47.62
2023-05-22T03:52:20.653Z,47.73
2023-05-22T03:54:52.374Z,47.72
2023-05-22T03:57:23.567Z,47.68
2023-05-22T03:59:52.352Z,47.71
2023-05-22T04:02:24.638Z,47.67
2023-05-22T04:04:57.176Z,47.74
2023-05-22T04:07:26.715Z,47.77
2023-05-22T04:09:58.939Z,47.76
2023-05-22T04:12:28.440Z,47.79
2023-05-22T04:14:59.263Z,47.75
2023-05-22T04:17:34.454Z,47.70
2023-05-22T04:20:05.869Z,47.83
2023-05-22T04:22:35.460Z,47.74
2023-05-22T04:25:06.808Z,47.85
2023-05-22T04:27:38.369Z,47.89
2023-05-22T04:30:10.856Z,47.73
2023-05-22T04:32:41.300Z,47.69
2023-05-22T04:35:13.900Z,47.84
2023-05-22T04:37:45.920Z,47.76
2023-05-22T04:40:15.646Z,47.78
2023-05-22T04:42:45.460Z,47.90
2023-05-22T04:45:15.935Z,47.77
2023-05-22T04:47:45.207Z,47.75
2023-05-22T04:50:16.755Z,47.76
2023-05-22T04:52:46.348Z,47.86
2023-05-22T04:55:15.905Z,48.03
2023-05-22T04:57:45.517Z,48.05
2023-05-22T05:00:17.688Z,48.16
2023-05-22T05:02:48.635Z,48.19
2023-05-22T05:05:17.693Z,48.54
2023-05-22T05:07:50.438Z,48.40
2023-05-22T05:10:20.902Z,48.45
2023-05-22T05:12:52.069Z,48.29
2023-05-22T05:15:23.203Z,48.22
2023-05-22T05:17:52.592Z,48.11
2023-05-22T05:20:21.499Z,48.03
2023-05-22T05:22:50.517Z,48.08
2023-05-22T05:25:21.057Z,47.98
2023-05-22T05:27:51.771Z,48.00
2023-05-22T05:30:21.737Z,48.04
2023-05-22T05:33:22.837Z,48.12
2023-05-22T05:36:18.187Z,47.91
2023-05-22T05:38:49.114Z,47.69
2023-05-22T05:41:20.665Z,47.63
2023-05-22T05:43:57.733Z,47.65
2023-05-22T05:46:28.404Z,47.60
2023-05-22T05:48:58.130Z,47.44
2023-05-22T05:51:28.101Z,47.42
2023-05-22T05:53:57.703Z,47.48
2023-05-22T05:56:29.171Z,47.48
2023-05-22T05:58:58.380Z,47.39
2023-05-22T06:01:47.797Z,47.46
2023-05-22T06:04:22.668Z,47.38
2023-05-22T06:06:53.539Z,47.19
2023-05-22T06:09:30.346Z,47.46
2023-05-22T06:12:25.780Z,47.31
2023-05-22T06:14:59.075Z,46.83
2023-05-22T06:17:28.300Z,46.67
2023-05-22T06:20:00.185Z,46.93
2023-05-22T06:22:30.161Z,47.16
2023-05-22T06:25:00.780Z,46.86
2023-05-22T06:27:30.338Z,46.44
2023-05-22T06:30:00.787Z,46.33
2023-05-22T06:32:33.379Z,46.14
2023-05-22T06:35:06.285Z,46.05
2023-05-22T06:37:36.208Z,46.08
2023-05-22T06:40:07.691Z,45.87
2023-05-22T06:42:58.687Z,45.76
2023-05-22T06:45:37.927Z,45.45
2023-05-22T06:48:24.170Z,45.55
2023-05-22T06:51:23.060Z,45.11
2023-05-22T06:53:53.946Z,45.12
2023-05-22T06:56:26.987Z,45.04
2023-05-22T06:58:59.882Z,44.70
2023-05-22T07:01:43.717Z,44.47
2023-05-22T07:04:16.072Z,44.10
2023-05-22T07:07:05.648Z,44.06
2023-05-22T07:09:35.546Z,43.89
2023-05-22T07:12:06.326Z,43.77
2023-05-22T07:14:36.160Z,43.62
2023-05-22T07:17:08.445Z,43.37
2023-05-22T07:19:42.315Z,43.22
2023-05-22T07:22:11.513Z,43.06
2023-05-22T07:24:41.497Z,42.83
2023-05-22T07:27:11.851Z,42.64
2023-05-22T07:29:44.504Z,42.56
2023-05-22T07:32:15.283Z,42.59
2023-05-22T07:34:48.689Z,42.55
2023-05-22T07:37:19.347Z,41.81
2023-05-22T07:39:50.106Z,41.47
2023-05-22T07:42:19.811Z,41.63
2023-05-22T07:44:51.992Z,41.58
2023-05-22T07:47:22.349Z,41.14
2023-05-22T07:49:52.739Z,40.87
2023-05-22T07:52:24.177Z,40.86
2023-05-22T07:54:55.158Z,40.59
2023-05-22T07:57:28.738Z,40.92
2023-05-22T08:00:02.187Z,40.59
2023-05-22T08:02:42.492Z,40.57
2023-05-22T08:05:12.349Z,40.35
2023-05-22T08:07:42.498Z,40.05
2023-05-22T08:10:16.346Z,40.01
2023-05-22T08:12:46.409Z,39.98
2023-05-22T08:15:16.128Z,39.58
2023-05-22T08:17:45.569Z,39.24
2023-05-22T08:20:16.471Z,39.48
2023-05-22T08:22:46.377Z,38.72
2023-05-22T08:25:16.829Z,38.30
2023-05-22T08:27:47.138Z,37.61
2023-05-22T08:30:16.551Z,36.73
2023-05-22T08:32:46.159Z,36.47
2023-05-22T08:35:17.130Z,36.38
2023-05-22T08:37:47.116Z,36.18
2023-05-22T08:40:17.700Z,35.64
2023-05-22T08:42:47.487Z,36.11
2023-05-22T08:45:17.767Z,36.30
2023-05-22T08:47:51.724Z,36.41
2023-05-22T08:50:22.194Z,35.48
2023-05-22T08:52:53.052Z,35.45
2023-05-22T08:55:21.874Z,35.56
2023-05-22T08:57:52.261Z,35.45
2023-05-22T09:00:22.116Z,35.17
2023-05-22T09:02:51.416Z,35.57
2023-05-22T09:05:21.869Z,35.50
2023-05-22T09:07:50.716Z,35.31
2023-05-22T09:10:23.258Z,35.23
2023-05-22T09:13:04.975Z,34.92
2023-05-22T09:15:34.754Z,35.50
2023-05-22T09:18:04.499Z,35.58
2023-05-22T09:20:39.321Z,34.75
2023-05-22T09:23:15.934Z,34.91
2023-05-22T09:25:46.907Z,34.63
2023-05-22T09:28:16.630Z,34.56
2023-05-22T09:30:49.970Z,33.95
2023-05-22T09:33:20.315Z,34.18
2023-05-22T09:35:55.674Z,34.03
2023-05-22T09:38:30.044Z,34.24
2023-05-22T09:40:58.978Z,33.99
2023-05-22T09:43:30.386Z,33.67
2023-05-22T09:46:05.222Z,32.81
2023-05-22T09:48:38.682Z,33.36
2023-05-22T09:51:08.818Z,33.25
2023-05-22T09:53:40.914Z,33.03
2023-05-22T09:56:14.691Z,32.50
2023-05-22T09:58:44.227Z,32.20
2023-05-22T10:01:15.953Z,32.62
2023-05-22T10:03:49.651Z,32.40
2023-05-22T10:06:19.368Z,31.76
2023-05-22T10:08:51.271Z,31.75
2023-05-22T10:11:20.233Z,31.52
2023-05-22T10:13:50.590Z,31.74
2023-05-22T10:16:20.710Z,31.42
2023-05-22T10:18:50.453Z,31.04
2023-05-22T10:21:21.806Z,31.06
2023-05-22T10:23:52.491Z,31.11
2023-05-22T10:26:22.024Z,31.03
2023-05-22T10:29:00.421Z,31.03
2023-05-22T10:31:42.738Z,31.17
2023-05-22T10:34:38.727Z,30.75
2023-05-22T10:37:17.298Z,30.95
2023-05-22T10:39:49.753Z,31.63
2023-05-22T10:42:18.843Z,31.69
2023-05-22T10:44:49.046Z,31.57
2023-05-22T10:47:18.057Z,31.48
2023-05-22T10:49:47.448Z,31.27
2023-05-22T10:52:22.230Z,31.45
2023-05-22T10:54:54.916Z,31.05
2023-05-22T10:57:25.323Z,30.66
2023-05-22T11:00:07.805Z,30.61
2023-05-22T11:02:41.284Z,30.94
2023-05-22T11:05:22.928Z,30.77
2023-05-22T11:07:52.880Z,30.75
2023-05-22T11:10:46.460Z,30.79
2023-05-22T11:13:19.163Z,30.36
2023-05-22T11:15:49.391Z,30.25
2023-05-22T11:18:18.117Z,30.19
2023-05-22T11:20:47.430Z,30.31
2023-05-22T11:23:18.629Z,30.34
2023-05-22T11:25:47.387Z,30.53
2023-05-22T11:28:17.873Z,30.30
2023-05-22T11:30:47.190Z,30.41
2023-05-22T11:33:16.099Z,30.24
2023-05-22T11:35:48.093Z,29.85
2023-05-22T11:38:18.459Z,29.56
2023-05-22T11:40:51.936Z,29.47
2023-05-22T11:43:30.460Z,29.22
2023-05-22T11:46:18.063Z,29.19
2023-05-22T11:48:48.264Z,29.28
2023-05-22T11:51:19.840Z,29.04
2023-05-22T11:53:51.263Z,29.08
2023-05-22T11:56:23.497Z,29.15
2023-05-22T11:58:53.571Z,28.68
2023-05-22T12:01:23.827Z,28.54
2023-05-22T12:03:52.888Z,28.36
2023-05-22T12:06:24.011Z,28.64
2023-05-22T12:08:56.504Z,28.83
2023-05-22T12:11:26.841Z,28.79
2023-05-22T12:14:03.444Z,28.81
2023-05-22T12:16:44.943Z,28.70
2023-05-22T12:19:15.823Z,28.77
2023-05-22T12:21:46.332Z,28.69
2023-05-22T12:24:15.384Z,28.91
2023-05-22T12:26:50.111Z,29.04
2023-05-22T12:29:27.568Z,28.68
2023-05-22T12:32:01.943Z,28.57
2023-05-22T12:34:35.943Z,28.83
2023-05-22T12:37:05.535Z,28.48
2023-05-22T12:39:35.431Z,28.49
2023-05-22T12:42:04.412Z,28.44
2023-05-22T12:44:36.321Z,28.27
2023-05-22T12:47:07.546Z,28.23
2023-05-22T12:49:38.406Z,28.24
2023-05-22T12:52:09.512Z,28.39
2023-05-22T12:54:39.760Z,28.38
2023-05-22T12:57:11.773Z,28.43
2023-05-22T12:59:40.987Z,28.64
2023-05-22T13:02:10.613Z,27.97
2023-05-22T13:04:39.757Z,28.18
2023-05-22T13:07:08.983Z,28.00
2023-05-22T13:09:38.231Z,27.76
2023-05-22T13:12:07.289Z,28.25
2023-05-22T13:14:39.239Z,28.66
2023-05-22T13:17:08.401Z,28.85
2023-05-22T13:19:38.699Z,28.82
2023-05-22T13:22:09.278Z,28.90
2023-05-22T13:24:39.537Z,28.56
2023-05-22T13:27:09.658Z,28.22
2023-05-22T13:29:38.823Z,27.79
2023-05-22T13:32:07.909Z,27.56
2023-05-22T13:34:38.336Z,27.79
2023-05-22T13:37:09.042Z,27.56
2023-05-22T13:39:38.178Z,27.74
2023-05-22T13:42:07.266Z,27.62
2023-05-22T13:44:36.055Z,27.72
2023-05-22T13:47:05.739Z,27.79
2023-05-22T13:49:42.280Z,27.81
2023-05-22T13:52:12.268Z,27.76
2023-05-22T13:54:42.665Z,27.76
2023-05-22T13:57:13.030Z,27.58
2023-05-22T13:59:43.865Z,27.79
2023-05-22T14:02:14.416Z,27.69
2023-05-22T14:04:44.371Z,27.98
2023-05-22T14:07:15.225Z,28.53
2023-05-22T14:09:44.740Z,28.07
2023-05-22T14:12:14.189Z,28.24
2023-05-22T14:14:42.951Z,28.45
2023-05-22T14:17:11.810Z,28.39
2023-05-22T14:19:42.126Z,28.43
2023-05-22T14:22:13.689Z,28.43
2023-05-22T14:24:43.335Z,27.64
2023-05-22T14:27:11.982Z,27.57
2023-05-22T14:29:40.800Z,27.24
2023-05-22T14:32:09.789Z,27.22
2023-05-22T14:34:39.798Z,27.97
2023-05-22T14:37:09.084Z,27.50
2023-05-22T14:39:37.760Z,27.11
2023-05-22T14:42:07.472Z,27.20
2023-05-22T14:44:36.397Z,27.22
2023-05-22T14:47:05.118Z,27.21
2023-05-22T14:49:35.685Z,27.11
2023-05-22T14:52:06.278Z,27.13
2023-05-22T14:54:36.970Z,27.27
2023-05-22T14:57:06.575Z,27.33
2023-05-22T14:59:37.101Z,27.47
2023-05-22T15:02:06.149Z,27.47
2023-05-22T15:04:36.881Z,27.42
2023-05-22T15:07:06.102Z,27.44
2023-05-22T15:09:36.307Z,27.66
2023-05-22T15:12:06.358Z,27.59
2023-05-22T15:14:35.123Z,27.63
2023-05-22T15:17:04.590Z,27.79
2023-05-22T15:19:34.908Z,27.96
2023-05-22T15:22:18.421Z,28.01
2023-05-22T15:24:48.589Z,28.23
2023-05-22T15:27:17.941Z,28.05
2023-05-22T15:29:48.107Z,28.11
2023-05-22T15:32:17.011Z,28.10
2023-05-22T15:34:46.384Z,28.36
2023-05-22T15:37:16.060Z,28.30
2023-05-22T15:39:45.149Z,28.38
2023-05-22T15:42:15.548Z,28.30
2023-05-22T15:44:46.307Z,28.26
2023-05-22T15:47:15.887Z,28.11
2023-05-22T15:49:44.724Z,27.86
2023-05-22T15:52:13.925Z,28.19
2023-05-22T15:54:44.346Z,28.42
2023-05-22T15:57:15.462Z,28.39
2023-05-22T15:59:47.414Z,28.30
2023-05-22T16:02:17.092Z,28.35
2023-05-22T16:04:46.536Z,28.57
2023-05-22T16:07:15.845Z,28.36
2023-05-22T16:09:45.828Z,28.21
2023-05-22T16:12:14.660Z,28.53
2023-05-22T16:14:44.949Z,28.54
2023-05-22T16:17:14.109Z,28.85
2023-05-22T16:19:43.665Z,28.58
2023-05-22T16:22:12.631Z,28.83
2023-05-22T16:24:41.757Z,28.59
2023-05-22T16:27:12.044Z,28.61
2023-05-22T16:29:41.531Z,28.38
2023-05-22T16:32:11.042Z,28.35
2023-05-22T16:34:41.751Z,28.90
2023-05-22T16:37:11.287Z,28.99
2023-05-22T16:39:41.699Z,29.17
2023-05-22T16:42:10.514Z,29.38
2023-05-22T16:44:39.593Z,29.25
2023-05-22T16:47:11.784Z,29.01
2023-05-22T16:49:41.592Z,28.97
2023-05-22T16:52:12.886Z,28.58
2023-05-22T16:54:43.062Z,28.64
2023-05-22T16:57:11.944Z,28.63
2023-05-22T16:59:41.696Z,28.52
2023-05-22T17:02:12.034Z,28.74
2023-05-22T17:04:41.339Z,28.47
2023-05-22T17:07:10.327Z,28.56
2023-05-22T17:09:45.842Z,28.64
2023-05-22T17:12:15.489Z,28.64
2023-05-22T17:14:46.909Z,28.45
2023-05-22T17:17:17.249Z,28.45
2023-05-22T17:19:47.019Z,28.65
2023-05-22T17:22:16.867Z,28.65
2023-05-22T17:24:47.403Z,28.58
2023-05-22T17:27:28.076Z,28.67
2023-05-22T17:30:05.351Z,28.78
2023-05-22T17:32:34.964Z,28.96
2023-05-22T17:35:07.105Z,29.22
2023-05-22T17:37:36.302Z,28.99
2023-05-22T17:40:05.743Z,29.14
2023-05-22T17:42:34.675Z,29.26
2023-05-22T17:45:04.347Z,29.46
2023-05-22T17:47:33.395Z,29.38
2023-05-22T17:50:03.196Z,29.52
2023-05-22T17:52:34.162Z,29.44
2023-05-22T17:55:03.420Z,29.67
2023-05-22T17:57:32.512Z,29.63
2023-05-22T18:00:02.541Z,29.67
2023-05-22T18:02:41.206Z,29.95
2023-05-22T18:05:11.268Z,30.08
2023-05-22T18:07:40.815Z,30.30
2023-05-22T18:10:11.319Z,30.77
2023-05-22T18:12:40.678Z,30.99
2023-05-22T18:15:11.440Z,31.16
2023-05-22T18:17:41.960Z,31.51
2023-05-22T18:20:14.664Z,31.58
2023-05-22T18:22:43.826Z,31.74
2023-05-22T18:25:12.927Z,31.75
2023-05-22T18:27:42.734Z,31.89
2023-05-22T18:30:12.025Z,31.48
2023-05-22T18:32:40.920Z,31.49
2023-05-22T18:35:10.028Z,31.72
2023-05-22T18:37:39.233Z,31.73
2023-05-22T18:40:09.783Z,31.76
2023-05-22T18:42:39.340Z,31.91
2023-05-22T18:45:08.464Z,32.19
2023-05-22T18:47:39.948Z,32.36
2023-05-22T18:50:10.007Z,32.33
2023-05-22T18:52:40.408Z,32.46
2023-05-22T18:55:10.390Z,32.78
2023-05-22T18:57:39.811Z,32.99
2023-05-22T19:00:10.787Z,33.16
2023-05-22T19:02:39.851Z,33.30
2023-05-22T19:05:09.200Z,33.46
2023-05-22T19:07:38.809Z,33.49
2023-05-22T19:10:10.097Z,33.60
2023-05-22T19:12:39.570Z,33.86
2023-05-22T19:15:09.291Z,33.85
2023-05-22T19:17:39.485Z,34.02
2023-05-22T19:20:09.343Z,34.32
2023-05-22T19:22:39.261Z,34.52
2023-05-22T19:25:10.986Z,34.76
2023-05-22T19:27:41.218Z,34.82
2023-05-22T19:30:11.770Z,35.06
2023-05-22T19:32:42.643Z,35.17
2023-05-22T19:35:15.818Z,35.26
2023-05-22T19:37:44.852Z,35.28
2023-05-22T19:40:14.502Z,35.53
2023-05-22T19:42:43.314Z,35.73
2023-05-22T19:45:12.399Z,36.08
2023-05-22T19:47:42.168Z,36.25
2023-05-22T19:50:12.688Z,36.28
2023-05-22T19:52:42.879Z,36.35
2023-05-22T19:55:11.978Z,36.42
2023-05-22T19:57:44.741Z,36.57
2023-05-22T20:00:16.443Z,36.76
2023-05-22T20:02:45.433Z,36.86
2023-05-22T20:05:16.033Z,37.11
2023-05-22T20:07:45.153Z,37.19
2023-05-22T20:10:14.200Z,37.25
2023-05-22T20:12:43.241Z,37.46
2023-05-22T20:15:15.310Z,37.41
2023-05-22T20:17:49.483Z,37.46
2023-05-22T20:20:19.622Z,37.75
2023-05-22T20:22:50.739Z,37.84
2023-05-22T20:25:23.541Z,38.09
2023-05-22T20:27:52.873Z,38.00
2023-05-22T20:30:22.946Z,38.22
2023-05-22T20:32:52.316Z,38.26
2023-05-22T20:35:22.464Z,38.41
2023-05-22T20:37:53.694Z,38.68
2023-05-22T20:40:26.835Z,38.63
2023-05-22T20:42:57.430Z,38.76
2023-05-22T20:45:32.577Z,38.79
2023-05-22T20:48:01.766Z,39.02
2023-05-22T20:50:33.045Z,39.09
2023-05-22T20:53:02.034Z,39.17
2023-05-22T20:55:31.209Z,39.41
2023-05-22T20:58:00.166Z,39.58
2023-05-22T21:00:30.314Z,39.58
2023-05-22T21:03:01.545Z,39.74
2023-05-22T21:05:30.574Z,39.75
2023-05-22T21:07:59.477Z,39.75
2023-05-22T21:10:29.404Z,39.81
2023-05-22T21:12:59.327Z,39.79
2023-05-22T21:15:29.773Z,40.09
2023-05-22T21:17:58.732Z,39.88
2023-05-22T21:20:27.948Z,39.98
2023-05-22T21:22:58.225Z,40.25
2023-05-22T21:25:27.593Z,40.29
2023-05-22T21:27:56.442Z,40.46
2023-05-22T21:30:25.140Z,40.20
2023-05-22T21:32:54.848Z,40.36
2023-05-22T21:35:23.955Z,40.53
2023-05-22T21:37:53.224Z,40.50
2023-05-22T21:40:22.554Z,40.66
2023-05-22T21:42:51.273Z,40.80
2023-05-22T21:45:20.066Z,40.77
2023-05-22T21:47:49.020Z,40.72
2023-05-22T21:50:19.303Z,40.93
2023-05-22T21:52:48.064Z,41.05
2023-05-22T21:55:19.031Z,41.11
2023-05-22T21:57:48.144Z,41.22
2023-05-22T22:00:19.504Z,41.16
2023-05-22T22:02:48.343Z,41.44
2023-05-22T22:05:21.969Z,41.40
2023-05-22T22:07:50.933Z,41.45
2023-05-22T22:10:21.100Z,41.42
2023-05-22T22:12:51.224Z,41.59
2023-05-22T22:15:22.145Z,41.56
2023-05-22T22:17:52.691Z,41.67
2023-05-22T22:20:42.693Z,41.74
2023-05-22T22:23:11.475Z,41.71
2023-05-22T22:25:40.809Z,41.77
2023-05-22T22:28:09.723Z,41.77
2023-05-22T22:30:40.159Z,41.74
2023-05-22T22:33:12.184Z,41.84
2023-05-22T22:35:44.123Z,41.98
2023-05-22T22:38:14.554Z,42.05
2023-05-22T22:40:45.264Z,42.25
2023-05-22T22:43:13.928Z,42.06
2023-05-22T22:45:43.852Z,42.10
2023-05-22T22:48:12.717Z,42.20
2023-05-22T22:50:43.129Z,42.13
2023-05-22T22:53:11.866Z,42.16
2023-05-22T22:55:41.072Z,42.16
2023-05-22T22:58:11.561Z,42.40
2023-05-22T23:00:40.658Z,42.46
2023-05-22T23:03:11.907Z,42.46
2023-05-22T23:05:41.829Z,42.51
2023-05-22T23:08:11.441Z,42.63
2023-05-22T23:10:40.230Z,42.47
2023-05-22T23:13:08.985Z,42.60
2023-05-22T23:15:39.813Z,42.81
2023-05-22T23:18:09.143Z,42.90
2023-05-22T23:20:37.948Z,43.16
2023-05-22T23:23:07.005Z,43.16
2023-05-22T23:25:36.039Z,43.42
2023-05-22T23:28:06.028Z,43.30
2023-05-22T23:30:35.282Z,43.21
2023-05-22T23:33:06.488Z,43.40
2023-05-22T23:35:36.973Z,43.38
2023-05-22T23:38:05.901Z,43.53
2023-05-22T23:40:34.834Z,43.57
2023-05-22T23:43:04.774Z,43.65
2023-05-22T23:45:33.556Z,43.64
2023-05-22T23:48:03.783Z,43.73
2023-05-22T23:50:32.684Z,43.71
2023-05-22T23:53:01.865Z,43.86
2023-05-22T23:55:32.081Z,44.13
2023-05-22T23:58:02.293Z,44.21
